Time;durP1;ratioP1;P1;durP2;ratioP2;P2;SDS_P1;SDS_P2;PMS_P1;PMS_P2;Temp;Humidity;BMP_temperature;BMP_pressure;BME280_temperature;BME280_humidity;BME280_pressure;Samples;Min_cycle;Max_cycle;Signal;HPM_P1;HPM_P2
2023/05/01 00:00:28;;;;;;;3.88;2.28;;;;;;;;;;12980507;19;20029;-67
2023/05/01 00:05:03;;;;;;;4.80;2.53;;;;;;;;;;12978618;19;20129;-66
2023/05/01 00:09:21;;;;;;;7.47;3.08;;;;;;;;;;12980188;19;21293;-67
2023/05/01 00:13:38;;;;;;;5.93;2.75;;;;;;;;;;12980193;19;20014;-67
2023/05/01 00:17:56;;;;;;;6.68;2.63;;;;;;;;;;12979898;19;20446;-66
2023/05/01 00:22:14;;;;;;;5.93;2.63;;;;;;;;;;12978334;19;20031;-66
2023/05/01 00:26:32;;;;;;;8.43;3.33;;;;;;;;;;12977869;19;20675;-66
2023/05/01 00:30:51;;;;;;;6.40;3.05;;;;;;;;;;12978786;19;20014;-66
2023/05/01 00:35:08;;;;;;;;;;;;;;;;;;12978978;19;20011;-66
2023/05/01 00:39:26;;;;;;;5.53;2.90;;;;;;;;;;12976005;19;20648;-67
2023/05/01 00:43:44;;;;;;;5.57;3.00;;;;;;;;;;12976933;19;20342;-67
2023/05/01 00:48:02;;;;;;;6.97;2.90;;;;;;;;;;12977027;19;20631;-66
2023/05/01 00:52:20;;;;;;;8.02;2.60;;;;;;;;;;12975938;19;20022;-66
2023/05/01 00:56:37;;;;;;;3.85;2.33;;;;;;;;;;12977778;19;20050;-67
2023/05/01 01:00:56;;;;;;;6.90;2.70;;;;;;;;;;12977291;19;20018;-66
2023/05/01 01:05:13;;;;;;;6.40;2.58;;;;;;;;;;12979880;19;20029;-66
2023/05/01 01:10:13;;;;;;;7.20;2.95;;;;;;;;;;12976974;19;20517;-65
2023/05/01 01:14:44;;;;;;;7.82;3.38;;;;;;;;;;12975566;19;20744;-65
2023/05/01 01:19:24;;;;;;;8.82;3.30;;;;;;;;;;12975279;19;20047;-67
2023/05/01 01:24:23;;;;;;;7.32;3.35;;;;;;;;;;12975117;19;20033;-66
2023/05/01 01:29:35;;;;;;;7.10;3.65;;;;;;;;;;12975603;19;20006;-66
2023/05/01 01:34:00;;;;;;;8.20;3.58;;;;;;;;;;12973548;19;20778;-66
2023/05/01 01:38:30;;;;;;;7.38;3.60;;;;;;;;;;12977554;19;20018;-66
2023/05/01 01:42:54;;;;;;;7.07;3.28;;;;;;;;;;12986036;19;20035;-66
2023/05/01 01:47:14;;;;;;;7.22;3.78;;;;;;;;;;12986967;19;20383;-66
2023/05/01 01:51:33;;;;;;;6.32;3.28;;;;;;;;;;12985868;19;20014;-66
2023/05/01 01:55:53;;;;;;;7.80;3.58;;;;;;;;;;12984810;19;20512;-67
2023/05/01 02:00:13;;;;;;;6.05;3.17;;;;;;;;;;12986413;19;20035;-66
2023/05/01 02:04:31;;;;;;;5.88;3.13;;;;;;;;;;12986017;19;20110;-67
2023/05/01 02:08:50;;;;;;;6.38;3.13;;;;;;;;;;12984578;19;20031;-66
2023/05/01 02:13:11;;;;;;;8.55;2.90;;;;;;;;;;12983532;19;20011;-66
2023/05/01 02:17:29;;;;;;;6.68;3.60;;;;;;;;;;12987235;19;20019;-67
2023/05/01 02:21:49;;;;;;;12.43;4.47;;;;;;;;;;12984202;19;20018;-67
2023/05/01 02:26:12;;;;;;;11.40;4.18;;;;;;;;;;12981976;19;20749;-66
2023/05/01 02:30:31;;;;;;;11.15;3.53;;;;;;;;;;12985570;19;20014;-66
2023/05/01 02:34:49;;;;;;;7.30;4.05;;;;;;;;;;12984087;19;20033;-66
2023/05/01 02:39:07;;;;;;;8.13;3.40;;;;;;;;;;12983718;19;20027;-66
2023/05/01 02:43:27;;;;;;;10.30;3.95;;;;;;;;;;12983874;19;20674;-66
2023/05/01 02:47:50;;;;;;;5.72;2.88;;;;;;;;;;12983246;19;20316;-66
2023/05/01 02:52:09;;;;;;;7.60;3.00;;;;;;;;;;12981416;19;20036;-66
2023/05/01 02:56:29;;;;;;;5.40;2.95;;;;;;;;;;12982881;19;20017;-66
2023/05/01 03:00:48;;;;;;;5.97;3.25;;;;;;;;;;12983792;19;20007;-66
2023/05/01 03:05:07;;;;;;;6.72;3.67;;;;;;;;;;12982616;19;20018;-67
2023/05/01 03:09:25;;;;;;;10.13;3.70;;;;;;;;;;12983302;19;20006;-65
2023/05/01 03:13:43;;;;;;;7.82;3.90;;;;;;;;;;12982426;19;20362;-66
2023/05/01 03:18:01;;;;;;;10.70;4.93;;;;;;;;;;12982082;19;20834;-68
2023/05/01 03:22:19;;;;;;;8.60;4.07;;;;;;;;;;12982376;19;20787;-68
2023/05/01 03:26:37;;;;;;;14.48;9.88;;;;;;;;;;12981902;19;20349;-67
2023/05/01 03:30:55;;;;;;;12.13;6.18;;;;;;;;;;12982877;19;20029;-66
2023/05/01 03:35:13;;;;;;;10.20;7.03;;;;;;;;;;12981361;19;20023;-66
2023/05/01 03:39:31;;;;;;;10.48;4.40;;;;;;;;;;12982528;19;20014;-67
2023/05/01 03:43:49;;;;;;;8.80;3.45;;;;;;;;;;12978033;19;20367;-67
2023/05/01 03:48:07;;;;;;;9.20;4.13;;;;;;;;;;12980453;19;20011;-67
2023/05/01 03:52:25;;;;;;;6.40;3.83;;;;;;;;;;12980720;19;20477;-67
2023/05/01 03:56:43;;;;;;;;;;;;;;;;;;12981322;19;20007;-67
2023/05/01 04:01:01;;;;;;;7.60;3.57;;;;;;;;;;12979867;19;19931;-67
2023/05/01 04:05:20;;;;;;;9.50;3.53;;;;;;;;;;12979716;19;20002;-67
2023/05/01 04:09:37;;;;;;;7.35;3.20;;;;;;;;;;12978890;19;20006;-66
2023/05/01 04:13:55;;;;;;;7.22;3.05;;;;;;;;;;12980497;19;20360;-66
2023/05/01 04:18:13;;;;;;;6.22;3.35;;;;;;;;;;12979628;19;20022;-67
2023/05/01 04:22:32;;;;;;;;;;;;;;;;;;12980181;19;20109;-66
2023/05/01 04:26:49;;;;;;;;;;;;;;;;;;12980039;19;19931;-66
2023/05/01 04:31:07;;;;;;;7.80;3.30;;;;;;;;;;12977974;19;19922;-67
2023/05/01 04:35:25;;;;;;;6.35;2.90;;;;;;;;;;12978346;19;20239;-67
2023/05/01 04:39:43;;;;;;;5.25;2.90;;;;;;;;;;12978362;19;20026;-66
2023/05/01 04:44:01;;;;;;;4.15;2.35;;;;;;;;;;12977362;19;20406;-67
2023/05/01 04:48:19;;;;;;;3.88;2.53;;;;;;;;;;12978010;19;20018;-68
2023/05/01 04:52:36;;;;;;;5.18;2.95;;;;;;;;;;12977409;19;20347;-67
2023/05/01 04:56:54;;;;;;;6.47;3.10;;;;;;;;;;12976909;19;20014;-67
2023/05/01 05:01:12;;;;;;;6.03;3.10;;;;;;;;;;12977417;19;20023;-67
2023/05/01 05:05:30;;;;;;;10.00;4.00;;;;;;;;;;12976871;19;20017;-68
2023/05/01 05:09:47;;;;;;;6.43;2.95;;;;;;;;;;12977211;19;20791;-67
2023/05/01 05:14:05;;;;;;;6.38;2.55;;;;;;;;;;12973517;19;20007;-67
2023/05/01 05:18:23;;;;;;;4.20;2.25;;;;;;;;;;12976082;19;20031;-67
2023/05/01 05:22:41;;;;;;;3.90;2.28;;;;;;;;;;12976007;19;20018;-67
2023/05/01 05:26:58;;;;;;;3.78;2.22;;;;;;;;;;12974720;19;20020;-68
2023/05/01 05:31:17;;;;;;;4.63;2.00;;;;;;;;;;12975660;19;20019;-68
2023/05/01 05:35:35;;;;;;;4.13;2.20;;;;;;;;;;12975614;19;20027;-67
2023/05/01 05:39:53;;;;;;;4.72;2.08;;;;;;;;;;12974958;19;20018;-67
2023/05/01 05:44:11;;;;;;;;;;;;;;;;;;12974402;19;20038;-67
2023/05/01 05:48:29;;;;;;;7.60;2.53;;;;;;;;;;12975970;19;19939;-68
2023/05/01 05:52:46;;;;;;;5.97;1.50;;;;;;;;;;12975527;19;20240;-67
2023/05/01 05:57:04;;;;;;;3.85;1.50;;;;;;;;;;12974060;19;20031;-66
2023/05/01 06:01:22;;;;;;;7.47;1.98;;;;;;;;;;12974905;19;20022;-67
2023/05/01 06:05:40;;;;;;;3.67;1.98;;;;;;;;;;12973936;19;20019;-67
2023/05/01 06:10:03;;;;;;;3.70;1.80;;;;;;;;;;12973220;19;20130;-68
2023/05/01 06:14:20;;;;;;;3.88;1.73;;;;;;;;;;12973102;19;20014;-69
2023/05/01 06:18:38;;;;;;;8.27;1.60;;;;;;;;;;12972994;19;20824;-67
2023/05/01 06:22:56;;;;;;;5.38;1.88;;;;;;;;;;12970777;19;20375;-68
2023/05/01 06:27:14;;;;;;;5.72;1.67;;;;;;;;;;12984190;19;20038;-68
2023/05/01 06:31:32;;;;;;;2.08;1.25;;;;;;;;;;12986001;19;20014;-68
2023/05/01 06:35:50;;;;;;;5.18;1.80;;;;;;;;;;12985726;19;20014;-69
2023/05/01 06:40:08;;;;;;;1.90;1.45;;;;;;;;;;12983843;19;20030;-68
2023/05/01 06:44:26;;;;;;;;;;;;;;;;;;12985099;19;20124;-68
2023/05/01 06:48:44;;;;;;;3.03;1.42;;;;;;;;;;12984621;19;19918;-67
2023/05/01 06:53:01;;;;;;;2.65;1.10;;;;;;;;;;12983427;19;20018;-67
2023/05/01 06:57:19;;;;;;;3.72;1.55;;;;;;;;;;12984108;19;20032;-67
2023/05/01 07:01:37;;;;;;;2.45;1.10;;;;;;;;;;12984679;19;20018;-67
2023/05/01 07:05:55;;;;;;;4.05;1.48;;;;;;;;;;12981748;19;20014;-67
2023/05/01 07:10:13;;;;;;;3.75;1.08;;;;;;;;;;12983395;19;20017;-68
2023/05/01 07:14:31;;;;;;;3.42;1.40;;;;;;;;;;12983881;19;20007;-67
2023/05/01 07:18:48;;;;;;;1.75;1.30;;;;;;;;;;12983497;19;20469;-67
2023/05/01 07:23:06;;;;;;;5.65;1.40;;;;;;;;;;12982318;19;20018;-67
2023/05/01 07:27:24;;;;;;;3.05;1.25;;;;;;;;;;12981844;19;20361;-67
2023/05/01 07:31:42;;;;;;;;;;;;;;;;;;12983046;19;20010;-68
2023/05/01 07:36:00;;;;;;;3.38;1.35;;;;;;;;;;12981021;19;19930;-67
2023/05/01 07:40:18;;;;;;;2.22;0.88;;;;;;;;;;12980032;19;20015;-68
2023/05/01 07:44:36;;;;;;;5.60;1.25;;;;;;;;;;12982666;19;20025;-67
2023/05/01 07:48:53;;;;;;;6.03;1.77;;;;;;;;;;12982316;19;20015;-67
2023/05/01 07:53:11;;;;;;;3.60;1.80;;;;;;;;;;12980763;19;20802;-67
2023/05/01 07:57:32;;;;;;;4.22;1.20;;;;;;;;;;12979791;19;20360;-67
2023/05/01 08:01:50;;;;;;;1.60;1.02;;;;;;;;;;12981061;19;20007;-67
2023/05/01 08:06:07;;;;;;;3.58;1.45;;;;;;;;;;12979156;19;20139;-67
2023/05/01 08:10:27;;;;;;;4.55;1.15;;;;;;;;;;12979458;19;20022;-67
2023/05/01 08:14:45;;;;;;;5.70;1.00;;;;;;;;;;12979983;19;20038;-67
2023/05/01 08:19:03;;;;;;;2.58;1.35;;;;;;;;;;12978904;19;20018;-68
2023/05/01 08:23:20;;;;;;;2.72;1.08;;;;;;;;;;12979188;19;20018;-68
2023/05/01 08:27:38;;;;;;;10.45;1.55;;;;;;;;;;12978430;19;20010;-67
2023/05/01 08:31:57;;;;;;;6.32;1.50;;;;;;;;;;12979701;19;20022;-67
2023/05/01 08:36:15;;;;;;;5.20;1.33;;;;;;;;;;12978293;19;20765;-66
2023/05/01 08:40:39;;;;;;;0.82;0.75;;;;;;;;;;12978125;19;20502;-67
2023/05/01 08:45:00;;;;;;;2.38;1.20;;;;;;;;;;12976871;19;20010;-67
2023/05/01 08:49:20;;;;;;;2.03;1.10;;;;;;;;;;12973709;19;20018;-67
2023/05/01 08:53:40;;;;;;;2.97;1.25;;;;;;;;;;12976549;19;20782;-67
2023/05/01 08:57:58;;;;;;;4.53;1.48;;;;;;;;;;12976254;19;20006;-67
2023/05/01 09:02:17;;;;;;;4.10;1.52;;;;;;;;;;12978212;19;20022;-66
2023/05/01 09:06:35;;;;;;;4.63;1.25;;;;;;;;;;12977218;19;20015;-67
2023/05/01 09:10:55;;;;;;;2.10;1.10;;;;;;;;;;12977217;19;20162;-67
2023/05/01 09:15:13;;;;;;;2.72;1.13;;;;;;;;;;12974938;19;20025;-67
2023/05/01 09:19:31;;;;;;;3.65;1.23;;;;;;;;;;12977270;19;20023;-67
2023/05/01 09:23:52;;;;;;;3.05;1.08;;;;;;;;;;12977268;19;20026;-68
2023/05/01 09:28:09;;;;;;;3.30;1.60;;;;;;;;;;12972701;19;20018;-67
2023/05/01 09:32:28;;;;;;;2.17;0.85;;;;;;;;;;12976559;19;20508;-67
2023/05/01 09:36:46;;;;;;;;;;;;;;;;;;12976162;19;20345;-67
2023/05/01 09:41:05;;;;;;;2.10;1.05;;;;;;;;;;12971456;19;19926;-67
2023/05/01 09:45:25;;;;;;;;;;;;;;;;;;12952819;19;20039;-67
2023/05/01 09:49:46;;;;;;;3.15;0.93;;;;;;;;;;12955269;19;20361;-67
2023/05/01 09:54:18;;;;;;;4.35;1.75;;;;;;;;;;12974551;19;20011;-67
2023/05/01 09:58:35;;;;;;;1.42;1.08;;;;;;;;;;12976471;19;20026;-68
2023/05/01 10:02:53;;;;;;;5.20;1.70;;;;;;;;;;12987340;19;20006;-68
2023/05/01 10:07:13;;;;;;;1.95;1.23;;;;;;;;;;12984993;19;20007;-67
2023/05/01 10:11:56;;;;;;;2.65;1.23;;;;;;;;;;12986453;19;20028;-66
2023/05/01 10:16:29;;;;;;;3.10;1.60;;;;;;;;;;12983414;19;20025;-67
2023/05/01 10:20:47;;;;;;;4.45;1.60;;;;;;;;;;12986771;19;20018;-66
2023/05/01 10:25:12;;;;;;;6.30;1.40;;;;;;;;;;12985146;19;20018;-66
2023/05/01 10:29:30;;;;;;;5.78;2.05;;;;;;;;;;12985322;19;20029;-68
2023/05/01 10:33:49;;;;;;;4.65;1.35;;;;;;;;;;12983697;19;20002;-67
2023/05/01 10:38:17;;;;;;;2.95;1.20;;;;;;;;;;12982890;19;20030;-67
2023/05/01 10:43:17;;;;;;;2.17;1.05;;;;;;;;;;12982466;19;20528;-67
2023/05/01 10:47:40;;;;;;;2.92;1.08;;;;;;;;;;12987207;19;20011;-66
2023/05/01 10:52:00;;;;;;;3.92;1.60;;;;;;;;;;12989474;19;20010;-67
2023/05/01 10:56:24;;;;;;;4.47;1.40;;;;;;;;;;12987576;19;20021;-67
2023/05/01 11:00:41;;;;;;;3.10;1.40;;;;;;;;;;12988645;19;20014;-66
2023/05/01 11:04:59;;;;;;;2.85;1.30;;;;;;;;;;12987963;19;20010;-66
2023/05/01 11:09:39;;;;;;;2.85;1.10;;;;;;;;;;12987962;19;20010;-68
2023/05/01 11:14:03;;;;;;;2.53;1.30;;;;;;;;;;12987966;19;20010;-67
2023/05/01 11:18:46;;;;;;;2.33;1.27;;;;;;;;;;12986838;19;20014;-67
2023/05/01 11:23:03;;;;;;;2.35;1.08;;;;;;;;;;12986640;19;20493;-67
2023/05/01 11:27:21;;;;;;;2.28;0.98;;;;;;;;;;12987281;19;20042;-67
2023/05/01 11:31:38;;;;;;;3.65;1.20;;;;;;;;;;12984281;19;20482;-66
2023/05/01 11:35:59;;;;;;;4.05;1.45;;;;;;;;;;12986828;19;20019;-67
2023/05/01 11:40:29;;;;;;;1.92;1.15;;;;;;;;;;12986511;19;20015;-67
2023/05/01 11:45:10;;;;;;;2.33;1.27;;;;;;;;;;12987318;19;20478;-66
2023/05/01 11:49:28;;;;;;;2.08;1.20;;;;;;;;;;12985690;19;20014;-66
2023/05/01 11:54:13;;;;;;;10.30;1.15;;;;;;;;;;12986148;19;20002;-65
2023/05/01 11:58:33;;;;;;;1.77;1.00;;;;;;;;;;12985835;19;20440;-65
2023/05/01 12:03:11;;;;;;;1.80;1.08;;;;;;;;;;12985936;19;20465;-65
2023/05/01 12:07:31;;;;;;;2.03;1.10;;;;;;;;;;12983624;19;20046;-66
2023/05/01 12:11:51;;;;;;;2.08;1.00;;;;;;;;;;12985999;19;20017;-65
2023/05/01 12:16:10;;;;;;;2.03;0.93;;;;;;;;;;12983902;19;20058;-65
2023/05/01 12:20:35;;;;;;;3.70;1.35;;;;;;;;;;12984889;19;20006;-65
2023/05/01 12:24:53;;;;;;;1.83;0.85;;;;;;;;;;12984118;19;20690;-66
2023/05/01 12:29:11;;;;;;;3.10;1.20;;;;;;;;;;12982341;19;20014;-65
2023/05/01 12:33:29;;;;;;;3.22;1.08;;;;;;;;;;12984894;19;20017;-66
2023/05/01 12:37:47;;;;;;;1.83;0.98;;;;;;;;;;12982002;19;20034;-65
2023/05/01 12:42:13;;;;;;;1.85;0.80;;;;;;;;;;12981687;19;20022;-65
2023/05/01 12:46:30;;;;;;;1.67;1.00;;;;;;;;;;12982181;19;20007;-66
2023/05/01 12:50:53;;;;;;;2.83;0.77;;;;;;;;;;12982029;19;20022;-67
2023/05/01 12:55:11;;;;;;;2.22;0.80;;;;;;;;;;12982495;19;20026;-65
2023/05/01 12:59:30;;;;;;;5.07;0.90;;;;;;;;;;12982209;19;20002;-66
2023/05/01 13:03:47;;;;;;;1.70;0.90;;;;;;;;;;12980357;19;20006;-66
2023/05/01 13:08:05;;;;;;;2.42;0.70;;;;;;;;;;12981067;19;20436;-66
2023/05/01 13:12:25;;;;;;;2.10;1.10;;;;;;;;;;12982617;19;20006;-66
2023/05/01 13:16:45;;;;;;;3.42;1.30;;;;;;;;;;12982277;19;20017;-66
2023/05/01 13:21:08;;;;;;;1.73;1.10;;;;;;;;;;12981703;19;20354;-66
2023/05/01 13:25:26;;;;;;;2.80;0.90;;;;;;;;;;12981707;19;20346;-65
2023/05/01 13:29:54;;;;;;;4.43;0.85;;;;;;;;;;12979803;19;20017;-66
2023/05/01 13:34:17;;;;;;;2.30;0.93;;;;;;;;;;12984257;19;20022;-65
2023/05/01 13:38:45;;;;;;;1.77;1.05;;;;;;;;;;12993136;19;20042;-66
2023/05/01 13:43:03;;;;;;;1.55;0.85;;;;;;;;;;12992350;19;20015;-65
2023/05/01 13:47:26;;;;;;;3.05;1.23;;;;;;;;;;12992415;19;20045;-65
2023/05/01 13:51:45;;;;;;;4.03;0.80;;;;;;;;;;12994112;19;20002;-65
2023/05/01 13:56:09;;;;;;;1.58;0.98;;;;;;;;;;12993318;19;20055;-66
2023/05/01 14:00:26;;;;;;;2.42;1.35;;;;;;;;;;12993476;19;20610;-65
2023/05/01 14:04:44;;;;;;;1.92;1.02;;;;;;;;;;12993408;19;20025;-65
2023/05/01 14:09:04;;;;;;;4.15;1.63;;;;;;;;;;12991075;19;20014;-64
2023/05/01 14:13:22;;;;;;;2.80;1.08;;;;;;;;;;12992299;19;20011;-66
2023/05/01 14:17:39;;;;;;;2.72;1.13;;;;;;;;;;12991133;19;20018;-64
2023/05/01 14:21:58;;;;;;;1.40;1.02;;;;;;;;;;12979059;19;20022;-64
2023/05/01 14:26:18;;;;;;;1.90;1.17;;;;;;;;;;12980020;19;20030;-65
2023/05/01 14:30:38;;;;;;;1.38;1.02;;;;;;;;;;12992178;19;20007;-65
2023/05/01 14:34:58;;;;;;;1.38;0.95;;;;;;;;;;12991978;19;20508;-65
2023/05/01 14:39:17;;;;;;;2.20;1.15;;;;;;;;;;12990127;19;20015;-65
2023/05/01 14:43:35;;;;;;;2.10;0.95;;;;;;;;;;12987824;19;20014;-65
2023/05/01 14:47:53;;;;;;;1.88;1.17;;;;;;;;;;12987664;19;20025;-65
2023/05/01 14:52:12;;;;;;;3.65;1.10;;;;;;;;;;12987066;19;20022;-65
2023/05/01 14:56:30;;;;;;;1.20;0.90;;;;;;;;;;12989744;19;20014;-64
2023/05/01 15:00:48;;;;;;;3.90;1.65;;;;;;;;;;12989741;19;20019;-64
2023/05/01 15:05:05;;;;;;;;;;;;;;;;;;12989925;19;20014;-65
2023/05/01 15:09:23;;;;;;;1.30;0.88;;;;;;;;;;12987277;19;20578;-64
2023/05/01 15:13:43;;;;;;;1.73;1.00;;;;;;;;;;12989210;19;20034;-64
2023/05/01 15:18:02;;;;;;;3.95;1.58;;;;;;;;;;12988485;19;20465;-65
2023/05/01 15:22:22;;;;;;;2.60;1.35;;;;;;;;;;12989013;19;20708;-65
2023/05/01 15:26:41;;;;;;;2.55;1.00;;;;;;;;;;12988326;19;20362;-65
2023/05/01 15:30:58;;;;;;;1.10;0.75;;;;;;;;;;12988163;19;20050;-64
2023/05/01 15:35:16;;;;;;;0.85;0.65;;;;;;;;;;12987801;19;20441;-65
2023/05/01 15:39:34;;;;;;;1.40;0.93;;;;;;;;;;12987480;19;20018;-65
2023/05/01 15:43:52;;;;;;;3.17;1.15;;;;;;;;;;12985909;19;20011;-66
2023/05/01 15:48:12;;;;;;;6.38;0.93;;;;;;;;;;12986137;19;20300;-65
2023/05/01 15:52:30;;;;;;;3.20;1.20;;;;;;;;;;12986926;19;20437;-66
2023/05/01 15:56:48;;;;;;;1.85;0.95;;;;;;;;;;12985733;19;20501;-65
2023/05/01 16:01:07;;;;;;;4.07;1.10;;;;;;;;;;12985758;19;20017;-65
2023/05/01 16:05:25;;;;;;;1.45;0.70;;;;;;;;;;12986551;19;20019;-65
2023/05/01 16:09:43;;;;;;;2.13;0.90;;;;;;;;;;12986116;19;20030;-64
2023/05/01 16:14:01;;;;;;;1.92;0.80;;;;;;;;;;12985801;19;20408;-65
2023/05/01 16:18:21;;;;;;;;;;;;;;;;;;12986874;19;20030;-64
2023/05/01 16:22:41;;;;;;;2.13;0.77;;;;;;;;;;12982184;19;19919;-64
2023/05/01 16:26:59;;;;;;;2.97;1.45;;;;;;;;;;12982797;19;20018;-66
2023/05/01 16:31:18;;;;;;;4.80;1.10;;;;;;;;;;12984824;19;20797;-64
2023/05/01 16:35:47;;;;;;;1.33;0.85;;;;;;;;;;12985443;19;20010;-64
2023/05/01 16:40:08;;;;;;;2.55;0.65;;;;;;;;;;12985111;19;20375;-64
2023/05/01 16:44:26;;;;;;;1.60;1.10;;;;;;;;;;12983962;19;20021;-64
2023/05/01 16:48:44;;;;;;;1.80;1.00;;;;;;;;;;12984237;19;20026;-65
2023/05/01 16:53:02;;;;;;;1.13;0.90;;;;;;;;;;12983876;19;20006;-65
2023/05/01 16:57:19;;;;;;;2.30;0.85;;;;;;;;;;12984777;19;20015;-64
2023/05/01 17:01:37;;;;;;;2.30;0.85;;;;;;;;;;12981035;19;20011;-65
2023/05/01 17:05:54;;;;;;;2.83;0.90;;;;;;;;;;12983625;19;20603;-64
2023/05/01 17:10:12;;;;;;;2.35;1.08;;;;;;;;;;12980837;19;20017;-64
2023/05/01 17:14:30;;;;;;;1.15;0.82;;;;;;;;;;12982751;19;20111;-65
2023/05/01 17:18:48;;;;;;;1.52;0.80;;;;;;;;;;12982686;19;20006;-64
2023/05/01 17:23:06;;;;;;;3.08;1.17;;;;;;;;;;12981428;19;20321;-64
2023/05/01 17:27:24;;;;;;;;;;;;;;;;;;12982591;19;20006;-64
2023/05/01 17:31:41;;;;;;;4.80;1.27;;;;;;;;;;12981540;19;19926;-65
2023/05/01 17:35:59;;;;;;;2.55;1.35;;;;;;;;;;12981575;19;20010;-66
2023/05/01 17:40:16;;;;;;;2.20;1.67;;;;;;;;;;12979099;19;20019;-64
2023/05/01 17:44:34;;;;;;;5.78;2.08;;;;;;;;;;12980727;19;20014;-64
2023/05/01 17:48:52;;;;;;;3.28;1.40;;;;;;;;;;12979574;19;20022;-64
2023/05/01 17:53:10;;;;;;;6.00;1.70;;;;;;;;;;12979940;19;20014;-65
2023/05/01 17:57:28;;;;;;;;;;;;;;;;;;12979506;19;20006;-64
2023/05/01 18:01:47;;;;;;;2.28;1.35;;;;;;;;;;12980016;19;19918;-64
2023/05/01 18:06:05;;;;;;;4.95;2.10;;;;;;;;;;12978992;19;20034;-65
2023/05/01 18:10:28;;;;;;;4.50;2.45;;;;;;;;;;12979949;19;20017;-66
2023/05/01 18:14:46;;;;;;;3.60;2.13;;;;;;;;;;12979401;19;20018;-65
2023/05/01 18:19:04;;;;;;;5.07;2.78;;;;;;;;;;12978953;19;20455;-67
2023/05/01 18:23:24;;;;;;;4.55;2.42;;;;;;;;;;12992087;19;20013;-65
2023/05/01 18:27:43;;;;;;;6.82;3.17;;;;;;;;;;12989935;19;20074;-65
2023/05/01 18:32:01;;;;;;;6.68;3.65;;;;;;;;;;12991680;19;20014;-66
2023/05/01 18:36:19;;;;;;;11.00;4.72;;;;;;;;;;12991120;19;20021;-65
2023/05/01 18:40:37;;;;;;;13.15;4.80;;;;;;;;;;12990713;19;20107;-64
2023/05/01 18:44:55;;;;;;;8.27;4.55;;;;;;;;;;12991036;19;20025;-64
2023/05/01 18:49:13;;;;;;;14.45;7.35;;;;;;;;;;12988555;19;20014;-63
2023/05/01 18:53:31;;;;;;;12.02;6.93;;;;;;;;;;12990149;19;20379;-65
2023/05/01 18:57:48;;;;;;;14.77;7.18;;;;;;;;;;12990260;19;20013;-64
2023/05/01 19:02:06;;;;;;;;;;;;;;;;;;12988983;19;20025;-64
2023/05/01 19:06:27;;;;;;;10.00;3.47;;;;;;;;;;12989424;19;20249;-64
2023/05/01 19:10:45;;;;;;;15.27;6.57;;;;;;;;;;12989452;19;20474;-65
2023/05/01 19:15:03;;;;;;;14.35;4.28;;;;;;;;;;12987347;19;20015;-64
2023/05/01 19:19:21;;;;;;;7.13;2.55;;;;;;;;;;12988333;19;20516;-65
2023/05/01 19:23:40;;;;;;;;;;;;;;;;;;12989138;19;20334;-65
2023/05/01 19:28:00;;;;;;;5.97;2.55;;;;;;;;;;12987444;19;19922;-65
2023/05/01 19:32:19;;;;;;;4.65;2.55;;;;;;;;;;12986155;19;20015;-64
2023/05/01 19:36:37;;;;;;;6.55;2.60;;;;;;;;;;12988335;19;20006;-65
2023/05/01 19:40:55;;;;;;;9.30;3.17;;;;;;;;;;12986720;19;20520;-64
2023/05/01 19:45:14;;;;;;;4.00;2.15;;;;;;;;;;12985162;19;20030;-65
2023/05/01 19:49:34;;;;;;;5.15;2.05;;;;;;;;;;12985602;19;20029;-67
2023/05/01 19:53:51;;;;;;;4.47;2.28;;;;;;;;;;12986744;19;20018;-64
2023/05/01 19:58:10;;;;;;;4.45;2.22;;;;;;;;;;12985313;19;20026;-65
2023/05/01 20:02:28;;;;;;;;;;;;;;;;;;12986757;19;20014;-65
2023/05/01 20:06:46;;;;;;;6.78;2.75;;;;;;;;;;12963513;19;19957;-65
2023/05/01 20:11:04;;;;;;;4.82;2.33;;;;;;;;;;12984915;19;20025;-65
2023/05/01 20:15:21;;;;;;;6.05;2.35;;;;;;;;;;12985693;19;20560;-64
2023/05/01 20:19:39;;;;;;;2.30;1.67;;;;;;;;;;12985884;19;20326;-65
2023/05/01 20:24:00;;;;;;;5.95;2.55;;;;;;;;;;12985650;19;20025;-67
2023/05/01 20:28:19;;;;;;;4.63;2.25;;;;;;;;;;12984607;19;20107;-65
2023/05/01 20:32:42;;;;;;;4.22;2.15;;;;;;;;;;12985468;19;20006;-65
2023/05/01 20:37:01;;;;;;;4.13;2.17;;;;;;;;;;12984386;19;20489;-65
2023/05/01 20:41:19;;;;;;;9.32;3.78;;;;;;;;;;12982689;19;20022;-65
2023/05/01 20:45:36;;;;;;;11.57;4.35;;;;;;;;;;12982499;19;20369;-65
2023/05/01 20:49:55;;;;;;;29.95;10.50;;;;;;;;;;12963566;19;20378;-66
2023/05/01 20:54:13;;;;;;;30.25;10.88;;;;;;;;;;12982528;19;20469;-65
2023/05/01 20:58:31;;;;;;;15.60;6.65;;;;;;;;;;12983123;19;20023;-65
2023/05/01 21:02:50;;;;;;;18.23;7.28;;;;;;;;;;12982963;19;20568;-65
2023/05/01 21:07:09;;;;;;;9.82;3.60;;;;;;;;;;12982327;19;20357;-64
2023/05/01 21:11:26;;;;;;;;;;;;;;;;;;12984653;19;20042;-65
2023/05/01 21:15:44;;;;;;;6.93;3.05;;;;;;;;;;12983220;19;19930;-64
2023/05/01 21:20:07;;;;;;;6.70;2.85;;;;;;;;;;12981073;19;20014;-64
2023/05/01 21:24:27;;;;;;;7.03;2.72;;;;;;;;;;12981507;19;20007;-65
2023/05/01 21:28:45;;;;;;;5.72;2.55;;;;;;;;;;12981216;19;20353;-66
2023/05/01 21:33:10;;;;;;;;;;;;;;;;;;12979534;19;20438;-65
2023/05/01 21:37:28;;;;;;;14.95;6.25;;;;;;;;;;12979979;19;19926;-64
2023/05/01 21:41:47;;;;;;;10.23;4.50;;;;;;;;;;12979316;19;20013;-64
2023/05/01 21:46:14;;;;;;;7.95;3.33;;;;;;;;;;12979339;19;20749;-65
2023/05/01 21:50:38;;;;;;;6.93;2.78;;;;;;;;;;12979257;19;20013;-64
2023/05/01 21:54:56;;;;;;;7.75;3.33;;;;;;;;;;12983764;19;20015;-65
2023/05/01 21:59:16;;;;;;;5.47;3.08;;;;;;;;;;12992245;19;20413;-64
2023/05/01 22:03:40;;;;;;;8.13;3.58;;;;;;;;;;12992019;19;20018;-67
2023/05/01 22:07:59;;;;;;;10.38;3.70;;;;;;;;;;12990903;19;20462;-64
2023/05/01 22:12:17;;;;;;;6.43;2.95;;;;;;;;;;12991135;19;20030;-64
2023/05/01 22:16:34;;;;;;;8.50;3.63;;;;;;;;;;12990907;19;20014;-64
2023/05/01 22:20:52;;;;;;;4.60;2.67;;;;;;;;;;12990607;19;20015;-65
2023/05/01 22:25:10;;;;;;;7.55;3.25;;;;;;;;;;12989854;19;20021;-64
2023/05/01 22:29:28;;;;;;;;;;;;;;;;;;12989621;19;20006;-64
2023/05/01 22:33:46;;;;;;;6.15;3.00;;;;;;;;;;12987533;19;19914;-65
2023/05/01 22:38:04;;;;;;;8.77;3.22;;;;;;;;;;12989423;19;20378;-65
2023/05/01 22:42:22;;;;;;;5.70;3.22;;;;;;;;;;12988929;19;20041;-65
2023/05/01 22:46:43;;;;;;;;;;;;;;;;;;12990913;19;20026;-66
2023/05/01 22:51:01;;;;;;;11.88;3.10;;;;;;;;;;12987778;19;19939;-65
2023/05/01 22:55:19;;;;;;;16.55;3.60;;;;;;;;;;12989226;19;20018;-65
2023/05/01 22:59:38;;;;;;;7.87;3.67;;;;;;;;;;12986312;19;20146;-65
2023/05/01 23:03:56;;;;;;;7.72;3.60;;;;;;;;;;12988401;19;20235;-65
2023/05/01 23:08:14;;;;;;;6.47;3.80;;;;;;;;;;12983336;19;20007;-64
2023/05/01 23:12:32;;;;;;;7.43;3.63;;;;;;;;;;12987721;19;20002;-65
2023/05/01 23:16:50;;;;;;;8.05;3.30;;;;;;;;;;12987956;19;20043;-65
2023/05/01 23:21:17;;;;;;;7.53;3.50;;;;;;;;;;12986736;19;20045;-65
2023/05/01 23:25:43;;;;;;;6.82;3.72;;;;;;;;;;12987393;19;20437;-65
2023/05/01 23:30:02;;;;;;;6.90;3.47;;;;;;;;;;12985532;19;20017;-66
2023/05/01 23:34:21;;;;;;;5.85;2.95;;;;;;;;;;12985881;19;20019;-65
2023/05/01 23:38:39;;;;;;;5.55;3.05;;;;;;;;;;12986598;19;20014;-65
2023/05/01 23:42:57;;;;;;;7.05;3.25;;;;;;;;;;12985461;19;20017;-65
2023/05/01 23:47:15;;;;;;;6.38;3.70;;;;;;;;;;12985149;19;20042;-64
2023/05/01 23:51:34;;;;;;;5.30;2.83;;;;;;;;;;12984945;19;20010;-64
2023/05/01 23:55:51;;;;;;;6.80;3.28;;;;;;;;;;12985859;19;20437;-64
